Time;durP1;ratioP1;P1;durP2;ratioP2;P2;SDS_P1;SDS_P2;PMS_P1;PMS_P2;Temp;Humidity;BMP_temperature;BMP_pressure;BME280_temperature;BME280_humidity;BME280_pressure;Samples;Min_cycle;Max_cycle;Signal;HPM_P1;HPM_P2
2022/05/21 00:00:20;;;;;;;2.22;1.63;;;19.70;94.60;;;;;;5010910;28;20042;-71
2022/05/21 00:02:46;;;;;;;2.80;1.55;;;19.50;94.60;;;;;;5010105;28;20026;-70
2022/05/21 00:05:12;;;;;;;4.03;1.70;;;19.40;94.70;;;;;;5011884;28;20036;-70
2022/05/21 00:07:37;;;;;;;6.97;1.88;;;19.40;94.90;;;;;;5010080;28;20025;-70
2022/05/21 00:10:03;;;;;;;4.75;1.80;;;19.30;95.00;;;;;;5011209;28;20125;-70
2022/05/21 00:12:29;;;;;;;2.00;1.55;;;19.20;95.00;;;;;;5009208;28;20033;-69
2022/05/21 00:14:57;;;;;;;2.22;1.73;;;19.20;95.00;;;;;;5012556;28;20466;-69
2022/05/21 00:17:22;;;;;;;7.38;2.10;;;19.10;94.80;;;;;;5009457;28;20432;-69
2022/05/21 00:19:48;;;;;;;3.40;1.70;;;19.00;94.80;;;;;;5011818;28;20038;-69
2022/05/21 00:22:13;;;;;;;2.58;1.70;;;19.00;94.70;;;;;;5009545;28;20026;-69
2022/05/21 00:24:39;;;;;;;2.53;1.80;;;18.90;94.70;;;;;;5011949;28;20110;-71
2022/05/21 00:27:05;;;;;;;3.28;1.90;;;18.80;94.70;;;;;;5010287;28;20473;-71
2022/05/21 00:29:30;;;;;;;3.72;1.63;;;18.80;94.70;;;;;;4992992;28;20076;-70
2022/05/21 00:31:56;;;;;;;2.55;1.55;;;18.70;94.70;;;;;;5001749;28;21033;-70
2022/05/21 00:34:22;;;;;;;4.18;1.50;;;18.70;94.70;;;;;;4990678;28;20081;-70
2022/05/21 00:36:47;;;;;;;6.15;1.70;;;18.60;94.70;;;;;;4992476;28;20088;-70
2022/05/21 00:39:13;;;;;;;3.33;1.40;;;18.60;94.60;;;;;;5009231;28;20401;-70
2022/05/21 00:41:39;;;;;;;2.30;1.70;;;18.60;94.50;;;;;;5009565;28;20026;-71
2022/05/21 00:44:06;;;;;;;2.72;1.75;;;18.50;94.40;;;;;;5010948;28;20440;-71
2022/05/21 00:46:34;;;;;;;3.67;1.60;;;18.50;94.30;;;;;;5003805;28;20026;-71
2022/05/21 00:49:27;;;;;;;2.58;1.88;;;18.50;94.30;;;;;;5012405;28;20089;-71
2022/05/21 00:52:07;;;;;;;2.65;1.85;;;18.50;94.40;;;;;;5002403;28;20084;-71
2022/05/21 00:54:40;;;;;;;3.30;1.80;;;18.50;94.40;;;;;;5009018;28;20023;-69
2022/05/21 00:57:14;;;;;;;2.38;1.70;;;18.50;94.40;;;;;;4997653;28;20092;-70
2022/05/21 00:59:47;;;;;;;2.45;1.50;;;18.40;94.10;;;;;;5008073;28;20046;-69
2022/05/21 01:02:16;;;;;;;4.50;1.60;;;18.40;94.00;;;;;;4999288;28;20030;-71
2022/05/21 01:04:44;;;;;;;2.10;1.60;;;18.40;94.00;;;;;;5015232;28;20163;-69
2022/05/21 01:07:10;;;;;;;3.20;2.08;;;18.30;93.90;;;;;;4999844;28;20061;-70
2022/05/21 01:09:39;;;;;;;3.40;2.22;;;18.30;93.90;;;;;;5009336;28;20133;-70
2022/05/21 01:12:06;;;;;;;2.65;1.77;;;18.30;93.80;;;;;;4995450;28;20052;-70
2022/05/21 01:14:32;;;;;;;2.88;1.65;;;18.20;93.50;;;;;;4998300;28;20030;-69
2022/05/21 01:16:59;;;;;;;2.88;1.70;;;18.20;93.50;;;;;;5011827;28;20497;-70
2022/05/21 01:19:25;;;;;;;2.40;1.65;;;18.10;93.50;;;;;;5014904;28;20025;-70
2022/05/21 01:21:50;;;;;;;1.85;1.58;;;18.10;93.40;;;;;;5013577;28;20377;-70
2022/05/21 01:24:16;;;;;;;2.80;1.80;;;18.00;93.40;;;;;;4995625;28;20501;-69
2022/05/21 01:26:42;;;;;;;4.05;1.80;;;18.00;93.40;;;;;;5001258;28;20065;-69
2022/05/21 01:29:14;;;;;;;2.38;1.95;;;17.90;93.20;;;;;;5001858;28;20034;-71
2022/05/21 01:31:40;;;;;;;1.70;1.42;;;17.90;93.20;;;;;;5003913;28;20042;-71
2022/05/21 01:34:07;;;;;;;1.88;1.50;;;17.80;93.20;;;;;;5014592;28;20129;-70
2022/05/21 01:36:32;;;;;;;2.30;1.70;;;17.80;93.10;;;;;;4998815;28;20052;-70
2022/05/21 01:38:58;;;;;;;2.33;1.70;;;17.70;93.10;;;;;;5011856;28;20414;-70
2022/05/21 01:41:23;;;;;;;2.55;1.73;;;17.70;93.20;;;;;;5014115;28;20021;-70
2022/05/21 01:46:33;;;;;;;2.10;1.60;;;17.60;93.10;;;;;;5013208;28;20084;-70
2022/05/21 01:48:58;;;;;;;2.90;1.75;;;17.60;93.10;;;;;;5001577;28;20034;-70
2022/05/21 01:51:24;;;;;;;2.78;1.50;;;17.60;93.10;;;;;;4994593;28;20385;-69
2022/05/21 01:53:49;;;;;;;2.45;1.75;;;17.60;93.20;;;;;;5005502;28;20038;-69
2022/05/21 01:56:15;;;;;;;3.22;1.75;;;17.60;93.00;;;;;;4995384;28;20034;-69
2022/05/21 01:58:42;;;;;;;2.50;1.77;;;17.50;93.10;;;;;;5011733;28;20029;-70
2022/05/21 02:01:10;;;;;;;2.53;1.77;;;17.50;93.20;;;;;;5012836;28;20059;-69
2022/05/21 02:03:36;;;;;;;2.70;1.98;;;17.50;93.20;;;;;;5010118;28;20038;-69
2022/05/21 02:06:02;;;;;;;2.55;1.90;;;17.50;93.20;;;;;;5000531;28;20113;-70
2022/05/21 02:08:28;;;;;;;3.50;1.80;;;17.50;93.30;;;;;;5016083;28;20046;-70
2022/05/21 02:10:53;;;;;;;4.50;1.90;;;17.40;93.20;;;;;;5019450;28;20029;-69
2022/05/21 02:13:22;;;;;;;4.07;1.70;;;17.40;93.30;;;;;;5020308;28;20036;-69
2022/05/21 02:15:48;;;;;;;2.85;1.50;;;17.40;93.30;;;;;;5007086;28;20027;-69
2022/05/21 02:18:13;;;;;;;3.05;2.00;;;17.40;93.20;;;;;;5017533;28;20084;-68
2022/05/21 02:20:39;;;;;;;3.20;1.98;;;17.40;93.20;;;;;;5012631;28;20518;-69
2022/05/21 02:23:05;;;;;;;2.83;1.85;;;17.40;93.20;;;;;;5013961;28;20034;-68
2022/05/21 02:25:31;;;;;;;2.85;1.80;;;17.40;93.20;;;;;;5010079;28;20026;-68
2022/05/21 02:27:57;;;;;;;3.08;1.77;;;17.40;93.10;;;;;;5006434;28;20576;-68
2022/05/21 02:30:22;;;;;;;4.88;1.90;;;17.40;93.20;;;;;;5000601;28;20038;-68
2022/05/21 02:32:48;;;;;;;2.65;1.85;;;17.40;93.40;;;;;;5016298;28;20032;-68
2022/05/21 02:35:14;;;;;;;2.42;1.88;;;17.40;93.20;;;;;;5013620;28;20163;-69
2022/05/21 02:40:24;;;;;;;4.38;2.13;;;17.30;93.00;;;;;;4997927;28;20056;-69
2022/05/21 02:42:50;;;;;;;6.53;2.13;;;17.30;93.10;;;;;;5008636;28;20486;-69
2022/05/21 02:45:21;;;;;;;2.80;1.80;;;17.30;93.20;;;;;;5010929;28;20033;-69
2022/05/21 02:47:48;;;;;;;2.92;2.28;;;17.30;93.40;;;;;;5011622;28;20037;-69
2022/05/21 02:50:16;;;;;;;2.58;1.85;;;17.30;93.70;;;;;;5012088;28;20038;-68
2022/05/21 02:52:42;;;;;;;3.28;1.88;;;17.30;93.70;;;;;;5001434;28;20034;-69
2022/05/21 02:55:09;;;;;;;2.95;1.88;;;17.30;93.60;;;;;;5001380;28;20021;-68
2022/05/21 02:57:35;;;;;;;3.63;1.80;;;17.30;93.40;;;;;;5002457;28;20027;-68
2022/05/21 03:00:08;;;;;;;4.18;1.80;;;17.30;93.30;;;;;;4996297;28;20097;-69
2022/05/21 03:02:33;;;;;;;4.90;1.95;;;17.30;93.30;;;;;;5011332;28;20022;-69
2022/05/21 03:04:59;;;;;;;4.07;1.63;;;17.20;93.10;;;;;;5011385;28;20686;-69
2022/05/21 03:07:24;;;;;;;2.20;1.75;;;17.20;93.00;;;;;;5009623;28;20022;-69
2022/05/21 03:12:36;;;;;;;3.70;1.83;;;17.30;92.70;;;;;;5010013;28;20453;-70
2022/05/21 03:15:01;;;;;;;3.40;1.98;;;17.20;92.50;;;;;;5011508;28;20061;-70
2022/05/21 03:17:28;;;;;;;2.47;1.77;;;17.20;92.70;;;;;;5003607;28;20023;-70
2022/05/21 03:19:53;;;;;;;3.47;1.70;;;17.20;92.40;;;;;;4993635;28;20042;-71
2022/05/21 03:22:19;;;;;;;2.75;2.00;;;17.10;92.30;;;;;;4999694;28;20033;-70
2022/05/21 03:24:44;;;;;;;4.85;1.88;;;17.10;92.20;;;;;;5012484;28;20120;-69
2022/05/21 03:27:10;;;;;;;4.68;2.50;;;17.10;92.40;;;;;;5003952;28;20072;-69
2022/05/21 03:29:37;;;;;;;3.53;2.17;;;17.10;92.10;;;;;;5012389;28;20021;-69
2022/05/21 03:32:03;;;;;;;5.13;2.25;;;17.10;92.10;;;;;;5001599;28;20022;-69
2022/05/21 03:34:28;;;;;;;2.95;1.90;;;17.10;91.90;;;;;;5012532;28;20045;-69
2022/05/21 03:36:54;;;;;;;3.38;2.10;;;17.00;91.80;;;;;;5005267;28;20401;-69
2022/05/21 03:39:19;;;;;;;5.47;2.28;;;17.00;91.70;;;;;;4994940;28;20104;-70
2022/05/21 03:41:45;;;;;;;2.92;1.85;;;16.90;91.70;;;;;;4994195;28;20465;-68
2022/05/21 03:44:10;;;;;;;10.35;2.40;;;16.90;91.80;;;;;;5006765;28;20026;-69
2022/05/21 03:46:38;;;;;;;4.15;1.80;;;16.80;91.70;;;;;;4993758;28;20030;-71
2022/05/21 03:49:05;;;;;;;1.88;1.63;;;16.80;91.70;;;;;;5001504;28;20501;-70
2022/05/21 03:51:30;;;;;;;3.13;1.83;;;16.80;91.80;;;;;;4992340;28;20038;-71
2022/05/21 03:53:56;;;;;;;4.05;2.03;;;16.80;91.70;;;;;;4994703;28;20460;-70
2022/05/21 03:56:21;;;;;;;3.25;1.95;;;16.80;91.70;;;;;;5006807;28;20062;-71
2022/05/21 03:58:47;;;;;;;2.00;1.55;;;16.70;91.60;;;;;;4997653;28;20394;-69
2022/05/21 04:01:13;;;;;;;6.03;1.90;;;16.60;91.60;;;;;;5007878;28;20038;-73
2022/05/21 04:03:39;;;;;;;3.03;1.73;;;16.60;91.60;;;;;;4997943;28;20037;-73
2022/05/21 04:06:05;;;;;;;3.42;1.60;;;16.60;91.70;;;;;;4994392;28;20109;-71
2022/05/21 04:08:30;;;;;;;2.78;1.60;;;16.60;91.70;;;;;;5009305;28;20140;-67
2022/05/21 04:10:55;;;;;;;4.45;2.47;;;16.50;91.60;;;;;;5010858;28;20026;-70
2022/05/21 04:13:22;;;;;;;4.20;1.70;;;16.40;91.60;;;;;;5002658;28;20037;-71
2022/05/21 04:15:47;;;;;;;2.28;1.52;;;16.40;91.60;;;;;;4993196;28;20031;-76
2022/05/21 04:18:13;;;;;;;2.88;1.40;;;16.40;91.70;;;;;;4997634;28;20117;-77
2022/05/21 04:20:39;;;;;;;3.55;1.60;;;16.40;91.70;;;;;;5012012;28;20571;-76
2022/05/21 04:23:05;;;;;;;3.95;1.50;;;16.50;91.60;;;;;;4999635;28;20449;-71
2022/05/21 04:25:31;;;;;;;2.80;1.60;;;16.50;91.40;;;;;;4998570;28;20038;-70
2022/05/21 04:27:57;;;;;;;3.95;2.00;;;16.50;91.10;;;;;;5009721;28;20022;-71
2022/05/21 04:30:28;;;;;;;3.00;1.50;;;16.40;90.90;;;;;;5014970;28;20114;-71
2022/05/21 04:32:58;;;;;;;1.77;1.27;;;16.30;90.90;;;;;;5016843;28;20037;-70
2022/05/21 04:35:25;;;;;;;2.40;1.60;;;16.30;91.00;;;;;;5002170;28;20030;-70
2022/05/21 04:37:51;;;;;;;2.30;1.50;;;16.30;90.90;;;;;;5014501;28;20478;-70
2022/05/21 04:40:20;;;;;;;2.92;1.50;;;16.30;90.80;;;;;;5017117;28;20088;-70
2022/05/21 04:42:46;;;;;;;2.10;1.38;;;16.30;90.80;;;;;;5010899;28;20367;-70
2022/05/21 04:45:13;;;;;;;2.35;1.50;;;16.20;90.60;;;;;;5018364;28;20029;-69
2022/05/21 04:47:38;;;;;;;3.78;1.40;;;16.20;90.70;;;;;;5013297;28;20025;-70
2022/05/21 04:50:07;;;;;;;2.05;1.40;;;16.20;90.70;;;;;;5016865;28;20026;-70
2022/05/21 04:52:33;;;;;;;5.55;1.70;;;16.30;90.70;;;;;;5013495;28;20025;-69
2022/05/21 04:55:00;;;;;;;3.35;1.77;;;16.40;90.70;;;;;;5014082;28;20594;-69
2022/05/21 04:57:25;;;;;;;2.42;1.52;;;16.30;90.70;;;;;;5008846;28;20084;-69
2022/05/21 04:59:51;;;;;;;3.10;1.70;;;16.30;90.60;;;;;;5016522;28;20045;-71
2022/05/21 05:02:17;;;;;;;3.95;1.83;;;16.30;90.50;;;;;;5015438;28;20022;-70
2022/05/21 05:04:42;;;;;;;3.70;1.70;;;16.40;90.60;;;;;;5017215;28;20054;-70
2022/05/21 05:07:09;;;;;;;3.33;1.63;;;16.50;90.60;;;;;;5006166;28;20377;-70
2022/05/21 05:09:42;;;;;;;4.28;1.52;;;16.50;90.60;;;;;;5009170;28;20049;-70
2022/05/21 05:12:08;;;;;;;5.05;2.28;;;16.50;90.50;;;;;;5010661;28;20052;-70
2022/05/21 05:14:36;;;;;;;3.33;1.90;;;16.60;90.50;;;;;;5016987;28;20120;-70
2022/05/21 05:17:01;;;;;;;2.53;1.50;;;16.60;90.30;;;;;;5007649;28;20030;-70
2022/05/21 05:19:29;;;;;;;2.80;1.77;;;16.70;90.30;;;;;;5000214;28;20056;-71
2022/05/21 05:21:55;;;;;;;2.40;1.55;;;16.70;90.30;;;;;;5011524;28;20116;-70
2022/05/21 05:24:20;;;;;;;2.95;2.00;;;16.70;90.10;;;;;;5017925;28;20520;-70
2022/05/21 05:26:45;;;;;;;4.35;1.98;;;16.60;90.10;;;;;;5015158;28;20554;-71
2022/05/21 05:29:11;;;;;;;5.13;2.22;;;16.70;90.10;;;;;;4998480;28;20035;-69
2022/05/21 05:31:36;;;;;;;4.55;2.53;;;16.70;89.90;;;;;;5003147;28;20054;-68
2022/05/21 05:34:02;;;;;;;3.15;1.63;;;16.70;89.90;;;;;;5008407;28;20022;-69
2022/05/21 05:36:28;;;;;;;4.03;2.05;;;16.70;90.00;;;;;;4994725;28;20532;-66
2022/05/21 05:38:54;;;;;;;3.35;1.60;;;16.60;89.60;;;;;;5007689;28;20050;-68
2022/05/21 05:41:20;;;;;;;2.83;1.80;;;16.60;89.50;;;;;;5004290;28;20038;-67
2022/05/21 05:43:45;;;;;;;6.70;2.42;;;16.60;89.20;;;;;;4995902;28;20100;-67
2022/05/21 05:46:10;;;;;;;3.75;1.70;;;16.50;89.10;;;;;;5000479;28;20629;-67
2022/05/21 05:48:36;;;;;;;3.40;1.60;;;16.60;88.90;;;;;;5011896;28;20080;-68
2022/05/21 05:51:04;;;;;;;7.47;1.73;;;16.50;89.00;;;;;;5012646;28;20038;-68
2022/05/21 05:53:29;;;;;;;3.08;1.80;;;16.60;88.70;;;;;;5010276;28;20096;-67
2022/05/21 05:55:55;;;;;;;4.95;1.70;;;16.70;88.60;;;;;;5001587;28;20501;-67
2022/05/21 06:01:06;;;;;;;2.97;1.88;;;16.60;87.60;;;;;;5013876;28;20125;-68
2022/05/21 06:03:34;;;;;;;4.40;2.20;;;16.70;87.80;;;;;;5012344;28;20125;-68
2022/05/21 06:06:00;;;;;;;3.22;1.73;;;16.70;87.80;;;;;;5008313;28;20038;-68
2022/05/21 06:08:26;;;;;;;4.10;1.73;;;16.70;87.90;;;;;;5005761;28;20042;-68
2022/05/21 06:10:51;;;;;;;8.18;2.60;;;16.80;87.80;;;;;;4994671;28;20382;-68
2022/05/21 06:13:17;;;;;;;3.58;1.83;;;16.80;87.60;;;;;;4994440;28;20050;-68
2022/05/21 06:15:43;;;;;;;5.25;2.40;;;16.90;87.40;;;;;;5000282;28;20034;-67
2022/05/21 06:18:14;;;;;;;4.15;1.63;;;16.90;87.10;;;;;;5003771;28;20125;-68
2022/05/21 06:20:41;;;;;;;3.63;1.80;;;17.00;88.00;;;;;;4992501;28;20042;-69
2022/05/21 06:23:07;;;;;;;3.85;1.85;;;17.10;88.00;;;;;;5001672;28;20026;-68
2022/05/21 06:25:35;;;;;;;4.53;2.05;;;17.30;87.30;;;;;;5002097;28;20041;-65
2022/05/21 06:28:03;;;;;;;4.30;1.63;;;17.40;85.90;;;;;;4999131;28;20109;-65
2022/05/21 06:30:31;;;;;;;3.40;1.90;;;17.50;85.40;;;;;;5006698;28;20045;-65
2022/05/21 06:32:57;;;;;;;3.90;1.88;;;17.60;84.90;;;;;;5006308;28;20707;-65
2022/05/21 06:35:23;;;;;;;5.43;1.98;;;17.60;84.60;;;;;;4996034;28;20465;-65
2022/05/21 06:37:48;;;;;;;3.67;1.85;;;17.60;83.80;;;;;;5004242;28;20048;-66
2022/05/21 06:40:16;;;;;;;4.03;1.77;;;17.60;83.60;;;;;;5012334;28;20041;-65
2022/05/21 06:42:41;;;;;;;4.07;1.70;;;17.60;83.90;;;;;;5008048;28;20449;-65
2022/05/21 06:45:08;;;;;;;4.55;1.80;;;17.70;84.10;;;;;;5003152;28;20126;-65
2022/05/21 06:47:33;;;;;;;3.58;1.88;;;17.70;84.30;;;;;;5009236;28;20032;-65
2022/05/21 06:49:59;;;;;;;3.17;1.77;;;17.70;83.90;;;;;;5012318;28;20124;-64
2022/05/21 06:52:27;;;;;;;3.50;1.70;;;17.70;83.70;;;;;;5012008;28;20029;-64
2022/05/21 06:54:53;;;;;;;4.90;2.10;;;17.70;83.80;;;;;;5010645;28;20048;-65
2022/05/21 06:57:21;;;;;;;2.92;1.83;;;17.70;83.20;;;;;;5010894;28;20021;-65
2022/05/21 06:59:47;;;;;;;4.28;1.60;;;17.70;83.50;;;;;;5012100;28;20129;-65
2022/05/21 07:02:13;;;;;;;3.70;1.73;;;17.70;83.60;;;;;;5006281;28;20159;-65
2022/05/21 07:07:33;;;;;;;3.95;1.60;;;18.00;83.50;;;;;;4999231;28;20037;-65
2022/05/21 07:10:07;;;;;;;8.38;1.90;;;18.00;82.10;;;;;;5011480;28;20085;-64
2022/05/21 07:12:34;;;;;;;2.90;2.00;;;18.10;81.50;;;;;;5011387;28;20022;-65
2022/05/21 07:15:01;;;;;;;4.20;1.60;;;18.10;81.70;;;;;;5011952;28;20508;-66
2022/05/21 07:17:26;;;;;;;3.35;1.73;;;18.20;81.50;;;;;;5010871;28;20030;-66
2022/05/21 07:19:51;;;;;;;2.88;1.33;;;18.30;80.00;;;;;;5001639;28;20045;-65
2022/05/21 07:22:20;;;;;;;2.22;1.70;;;18.30;80.20;;;;;;4998148;28;20048;-65
2022/05/21 07:24:46;;;;;;;3.72;1.48;;;18.30;79.70;;;;;;5011081;28;20065;-65
2022/05/21 07:27:12;;;;;;;3.85;1.63;;;18.40;79.50;;;;;;5005088;28;20104;-65
2022/05/21 07:29:41;;;;;;;2.85;1.60;;;18.40;78.50;;;;;;4998735;28;20856;-65
2022/05/21 07:32:19;;;;;;;3.38;1.77;;;18.40;79.10;;;;;;5010479;28;20121;-66
2022/05/21 07:34:45;;;;;;;2.30;1.70;;;18.40;79.30;;;;;;5011188;28;20069;-66
2022/05/21 07:37:11;;;;;;;2.63;1.20;;;18.40;79.70;;;;;;5015416;28;20029;-65
2022/05/21 07:39:36;;;;;;;2.05;1.30;;;18.50;79.70;;;;;;5021142;28;20414;-66
2022/05/21 07:42:02;;;;;;;2.67;1.50;;;18.60;79.60;;;;;;4993763;28;20034;-66
2022/05/21 07:44:27;;;;;;;2.55;1.60;;;18.60;79.70;;;;;;5014959;28;20026;-66
2022/05/21 07:46:53;;;;;;;4.07;1.70;;;18.70;79.60;;;;;;4995123;28;20026;-66
2022/05/21 07:49:18;;;;;;;2.05;1.42;;;18.70;80.10;;;;;;5010411;28;20037;-65
2022/05/21 07:51:44;;;;;;;2.55;1.40;;;18.60;79.70;;;;;;5010806;28;20064;-66
2022/05/21 07:54:09;;;;;;;1.40;1.23;;;18.60;79.70;;;;;;5010537;28;20045;-66
2022/05/21 07:56:35;;;;;;;2.45;1.33;;;18.70;80.40;;;;;;5011995;28;20120;-66
2022/05/21 07:59:00;;;;;;;3.95;1.75;;;18.60;80.70;;;;;;5005322;28;20497;-66
2022/05/21 08:01:28;;;;;;;5.57;1.90;;;18.60;80.50;;;;;;4994062;28;20041;-66
2022/05/21 08:03:54;;;;;;;3.08;1.50;;;18.70;81.00;;;;;;5007830;28;20682;-65
2022/05/21 08:06:19;;;;;;;2.70;1.60;;;18.70;80.70;;;;;;4992584;28;20369;-65
2022/05/21 08:08:46;;;;;;;5.97;1.63;;;18.70;81.00;;;;;;5007924;28;20104;-65
2022/05/21 08:11:12;;;;;;;2.38;1.58;;;18.80;81.30;;;;;;4999894;28;20026;-65
2022/05/21 08:13:37;;;;;;;4.18;1.45;;;18.90;81.10;;;;;;5008975;28;20145;-65
2022/05/21 08:16:03;;;;;;;4.05;1.95;;;19.00;80.80;;;;;;5030348;28;20108;-65
2022/05/21 08:18:31;;;;;;;4.18;1.65;;;19.10;80.20;;;;;;5016864;28;20029;-64
2022/05/21 08:20:56;;;;;;;2.97;2.03;;;19.20;80.40;;;;;;4993798;28;20042;-65
2022/05/21 08:28:50;;;;;;;3.87;1.67;;;19.60;80.30;;;;;;5013983;28;20037;-64
2022/05/21 08:31:16;;;;;;;4.55;1.50;;;19.70;79.50;;;;;;5021589;28;20033;-65
2022/05/21 08:33:42;;;;;;;4.68;1.67;;;19.80;79.30;;;;;;5011063;28;20500;-66
2022/05/21 08:36:08;;;;;;;4.05;1.58;;;19.90;79.30;;;;;;4991761;28;20034;-65
2022/05/21 08:38:34;;;;;;;2.90;1.42;;;20.10;78.90;;;;;;5013634;28;20022;-65
2022/05/21 08:41:20;;;;;;;4.95;2.03;;;20.20;77.70;;;;;;5008012;28;20513;-65
2022/05/21 08:43:55;;;;;;;6.13;1.60;;;20.30;76.40;;;;;;5009034;28;20022;-64
2022/05/21 08:46:47;;;;;;;1.95;1.35;;;20.30;76.10;;;;;;5016482;28;20388;-66
2022/05/21 08:49:39;;;;;;;4.18;1.35;;;20.40;75.80;;;;;;4990426;28;20034;-66
2022/05/21 08:52:16;;;;;;;4.60;1.67;;;20.30;75.30;;;;;;5013514;28;20663;-69
2022/05/21 08:54:47;;;;;;;5.13;1.75;;;20.30;75.80;;;;;;4998647;28;20056;-68
2022/05/21 08:57:25;;;;;;;7.60;1.92;;;20.30;75.50;;;;;;5003378;28;20434;-67
2022/05/21 09:00:00;;;;;;;5.47;1.95;;;20.20;75.80;;;;;;5010394;28;20034;-66
2022/05/21 09:02:31;;;;;;;4.82;2.20;;;20.20;76.10;;;;;;5007572;28;20417;-67
2022/05/21 09:04:57;;;;;;;8.30;2.03;;;20.10;76.50;;;;;;5009411;28;20084;-67
2022/05/21 09:07:26;;;;;;;4.60;2.25;;;20.00;77.70;;;;;;5011711;28;20027;-67
2022/05/21 09:10:14;;;;;;;5.78;2.08;;;19.90;79.40;;;;;;4999897;28;20066;-66
2022/05/21 09:12:54;;;;;;;6.88;2.33;;;19.80;80.60;;;;;;5019912;28;20453;-67
2022/05/21 09:18:14;;;;;;;3.95;2.28;;;19.80;82.40;;;;;;5012044;28;20540;-67
2022/05/21 09:20:52;;;;;;;4.32;2.65;;;19.80;82.60;;;;;;4996202;28;20472;-67
2022/05/21 09:23:18;;;;;;;3.58;1.88;;;19.90;83.40;;;;;;5001241;28;20492;-67
2022/05/21 09:25:43;;;;;;;5.05;2.15;;;19.90;83.20;;;;;;5010507;28;20038;-67
2022/05/21 09:28:11;;;;;;;5.47;2.10;;;20.00;82.60;;;;;;5016788;28;20022;-67
2022/05/21 09:30:53;;;;;;;3.85;1.70;;;20.00;82.60;;;;;;5012116;28;20131;-66
2022/05/21 09:33:23;;;;;;;4.28;2.33;;;20.00;83.00;;;;;;5011561;28;20034;-66
2022/05/21 09:35:55;;;;;;;4.43;2.22;;;20.00;82.40;;;;;;5000541;28;20026;-66
2022/05/21 09:38:52;;;;;;;3.63;2.20;;;20.00;82.30;;;;;;5014404;28;20100;-67
2022/05/21 09:41:28;;;;;;;5.57;2.55;;;19.90;81.60;;;;;;5006977;28;20484;-66
2022/05/21 09:47:21;;;;;;;4.72;2.40;;;19.60;81.70;;;;;;5008290;28;20046;-67
2022/05/21 09:50:05;;;;;;;2.88;2.35;;;19.60;82.10;;;;;;5010578;28;20027;-66
2022/05/21 09:52:31;;;;;;;4.93;3.45;;;19.60;82.20;;;;;;4996595;28;20034;-66
2022/05/21 09:54:57;;;;;;;5.88;3.00;;;19.70;82.00;;;;;;5013747;28;20026;-65
2022/05/21 09:57:42;;;;;;;7.60;3.20;;;19.80;82.00;;;;;;5010453;28;20091;-65
2022/05/21 10:00:52;;;;;;;7.47;3.60;;;19.80;81.40;;;;;;4996785;28;20181;-67
2022/05/21 10:03:36;;;;;;;5.53;3.38;;;19.90;81.30;;;;;;4976848;28;20022;-66
2022/05/21 10:06:07;;;;;;;5.18;3.45;;;19.90;81.00;;;;;;4998954;28;20026;-66
2022/05/21 10:11:31;;;;;;;6.63;3.33;;;19.90;81.10;;;;;;5016198;28;20046;-66
2022/05/21 10:14:05;;;;;;;7.78;4.45;;;19.90;81.50;;;;;;4995459;28;20496;-66
2022/05/21 10:16:47;;;;;;;5.00;4.18;;;20.00;80.70;;;;;;5005324;28;20045;-66
2022/05/21 10:19:42;;;;;;;7.43;4.70;;;20.00;79.60;;;;;;4995834;28;20042;-67
2022/05/21 10:22:34;;;;;;;5.75;4.45;;;20.00;79.90;;;;;;5020601;28;20626;-67
2022/05/21 10:25:05;;;;;;;6.18;4.00;;;20.10;79.80;;;;;;4994137;28;20069;-67
2022/05/21 10:27:36;;;;;;;6.75;4.28;;;20.20;80.00;;;;;;5000836;28;20105;-66
2022/05/21 10:30:17;;;;;;;4.68;3.50;;;20.20;79.50;;;;;;5012417;28;20421;-66
2022/05/21 10:33:16;;;;;;;5.07;3.85;;;20.30;79.50;;;;;;5001286;28;20041;-66
2022/05/21 10:36:01;;;;;;;7.35;4.18;;;20.50;79.70;;;;;;4999840;28;20037;-66
2022/05/21 10:38:53;;;;;;;6.80;4.60;;;20.60;79.60;;;;;;5010176;28;20034;-66
2022/05/21 10:41:46;;;;;;;7.28;3.97;;;20.80;78.70;;;;;;5007107;28;20050;-66
2022/05/21 10:44:40;;;;;;;5.55;4.10;;;20.80;78.00;;;;;;5001050;28;20038;-67
2022/05/21 10:47:32;;;;;;;6.38;4.38;;;20.80;77.70;;;;;;5015939;28;20036;-67
2022/05/21 10:50:18;;;;;;;5.78;4.28;;;20.70;77.30;;;;;;4996764;28;20105;-67
2022/05/21 10:52:50;;;;;;;7.88;3.90;;;20.80;77.50;;;;;;5016248;28;20034;-67
2022/05/21 10:55:26;;;;;;;6.13;4.25;;;20.80;77.20;;;;;;5010747;28;20033;-67
2022/05/21 10:58:08;;;;;;;7.13;3.92;;;21.00;76.90;;;;;;4994499;28;20038;-67
2022/05/21 11:01:09;;;;;;;6.15;3.58;;;20.90;76.10;;;;;;5003624;28;20121;-67
2022/05/21 11:03:40;;;;;;;7.32;3.40;;;20.80;76.20;;;;;;5027338;28;20109;-67
2022/05/21 11:06:24;;;;;;;4.97;3.95;;;20.70;76.40;;;;;;5016566;28;20053;-67
2022/05/21 11:09:08;;;;;;;5.20;3.43;;;20.70;76.10;;;;;;5012178;28;20042;-68
2022/05/21 11:11:42;;;;;;;4.72;3.45;;;20.60;76.00;;;;;;5001260;28;20261;-68
2022/05/21 11:14:21;;;;;;;6.00;3.05;;;20.60;75.60;;;;;;5027053;28;20034;-67
2022/05/21 11:17:12;;;;;;;4.10;3.13;;;20.60;75.70;;;;;;5028473;28;20025;-67
2022/05/21 11:19:56;;;;;;;5.63;3.50;;;20.60;76.00;;;;;;4994129;28;20062;-67
2022/05/21 11:22:39;;;;;;;5.85;4.03;;;20.70;75.70;;;;;;4996494;28;20019;-67
2022/05/21 11:25:13;;;;;;;6.88;2.88;;;20.70;74.60;;;;;;5022874;28;20508;-67
2022/05/21 11:28:10;;;;;;;6.47;3.35;;;20.70;74.90;;;;;;5014889;28;20032;-67
2022/05/21 11:30:36;;;;;;;5.25;3.20;;;20.80;74.60;;;;;;5013375;28;20046;-67
2022/05/21 11:38:43;;;;;;;5.45;3.35;;;20.60;74.60;;;;;;5006345;28;20022;-67
2022/05/21 11:41:29;;;;;;;5.82;3.15;;;20.60;74.10;;;;;;5000452;28;20045;-68
2022/05/21 11:46:50;;;;;;;5.90;4.07;;;20.70;74.00;;;;;;5005832;28;20029;-67
2022/05/21 11:49:34;;;;;;;4.43;2.92;;;20.70;74.10;;;;;;4995920;28;20035;-67
2022/05/21 11:52:31;;;;;;;6.63;3.63;;;20.80;73.50;;;;;;5010088;28;20052;-67
2022/05/21 11:54:57;;;;;;;6.35;3.33;;;20.90;73.80;;;;;;5003413;28;20069;-67
2022/05/21 11:57:35;;;;;;;4.70;3.30;;;21.00;73.50;;;;;;5004684;28;20030;-67
2022/05/21 12:00:29;;;;;;;6.32;3.60;;;21.00;73.20;;;;;;4995111;28;20096;-67
2022/05/21 12:02:54;;;;;;;7.80;3.60;;;21.00;73.20;;;;;;5022801;28;20508;-67
2022/05/21 12:08:14;;;;;;;6.28;3.75;;;20.90;73.20;;;;;;5001373;28;20451;-67
2022/05/21 12:10:58;;;;;;;5.03;3.25;;;20.80;73.30;;;;;;5011837;28;20034;-67
2022/05/21 12:13:35;;;;;;;8.30;3.65;;;20.70;73.50;;;;;;4998596;28;20113;-68
2022/05/21 12:16:16;;;;;;;5.72;3.70;;;20.70;73.50;;;;;;4992288;28;20022;-67
2022/05/21 12:18:49;;;;;;;6.85;3.42;;;20.60;73.50;;;;;;5004958;28;20029;-67
2022/05/21 12:21:43;;;;;;;5.60;3.13;;;20.60;74.20;;;;;;4993561;28;20468;-67
2022/05/21 12:24:38;;;;;;;6.05;3.30;;;20.60;74.40;;;;;;5003826;28;20022;-67
2022/05/21 12:27:27;;;;;;;6.05;3.80;;;20.60;74.90;;;;;;5007050;28;20112;-67
2022/05/21 12:29:59;;;;;;;6.28;3.25;;;20.70;74.90;;;;;;5008668;28;20034;-66
2022/05/21 12:32:26;;;;;;;6.20;3.33;;;20.70;74.30;;;;;;4997608;28;20470;-66
2022/05/21 12:35:13;;;;;;;5.78;3.22;;;20.70;73.80;;;;;;5001688;28;20025;-67
2022/05/21 12:37:45;;;;;;;5.40;3.30;;;20.70;73.30;;;;;;5011809;28;20029;-67
2022/05/21 12:40:20;;;;;;;5.78;2.88;;;20.60;73.70;;;;;;4997725;28;20046;-67
2022/05/21 12:42:53;;;;;;;4.63;3.03;;;20.60;74.20;;;;;;5007418;28;20030;-66
2022/05/21 12:45:36;;;;;;;7.55;3.72;;;20.60;74.50;;;;;;5008795;28;20052;-66
2022/05/21 12:48:17;;;;;;;5.93;3.28;;;20.70;75.40;;;;;;5007606;28;20026;-66
2022/05/21 12:50:58;;;;;;;7.07;3.72;;;20.70;75.00;;;;;;5000497;28;20041;-66
2022/05/21 12:53:32;;;;;;;6.88;3.53;;;20.80;75.40;;;;;;5012611;28;20026;-67
2022/05/21 12:56:01;;;;;;;5.80;3.10;;;20.90;74.90;;;;;;5003809;28;20033;-66
2022/05/21 12:58:27;;;;;;;6.80;2.63;;;21.00;75.10;;;;;;5003633;28;20040;-66
2022/05/21 13:00:54;;;;;;;5.10;2.88;;;21.10;73.90;;;;;;5008415;28;20037;-67
2022/05/21 13:03:22;;;;;;;5.72;2.58;;;21.30;74.20;;;;;;5009892;28;20034;-66
2022/05/21 13:05:58;;;;;;;4.15;2.50;;;21.40;73.10;;;;;;5009145;28;20509;-67
2022/05/21 13:08:24;;;;;;;5.22;2.45;;;21.50;72.60;;;;;;4996359;28;20053;-67
2022/05/21 13:11:04;;;;;;;5.13;2.35;;;21.60;73.10;;;;;;5007807;28;20041;-67
2022/05/21 13:13:38;;;;;;;4.78;2.50;;;21.60;72.30;;;;;;5000444;28;20084;-66
2022/05/21 13:16:06;;;;;;;;;;;21.70;71.10;;;;;;5013872;28;20040;-66
2022/05/21 13:19:08;;;;;;;6.30;2.10;;;21.70;69.00;;;;;;5004825;28;19909;-67
2022/05/21 13:22:00;;;;;;;5.45;2.58;;;21.70;70.80;;;;;;5000230;28;20848;-66
2022/05/21 13:24:41;;;;;;;5.18;2.67;;;21.80;70.20;;;;;;5014085;28;20026;-66
2022/05/21 13:27:20;;;;;;;7.28;3.20;;;21.80;70.10;;;;;;5010388;28;20381;-66
2022/05/21 13:29:46;;;;;;;5.00;2.88;;;21.80;70.10;;;;;;5009983;28;20026;-67
2022/05/21 13:32:28;;;;;;;5.72;2.60;;;21.80;70.10;;;;;;4997236;28;20385;-66
2022/05/21 13:35:03;;;;;;;7.05;2.20;;;21.90;69.30;;;;;;5010967;28;20500;-65
2022/05/21 13:37:44;;;;;;;3.58;1.75;;;22.00;69.30;;;;;;5003826;28;20395;-66
2022/05/21 13:40:17;;;;;;;5.97;1.73;;;22.10;68.60;;;;;;5007195;28;20092;-68
2022/05/21 13:42:45;;;;;;;2.75;1.60;;;22.10;66.80;;;;;;5017931;28;20386;-68
2022/05/21 13:45:18;;;;;;;3.88;1.55;;;22.10;68.00;;;;;;5013804;28;20027;-68